createdAt,value
2023-03-08T00:01:58.571Z,16.50
2023-03-08T00:04:27.968Z,17.60
2023-03-08T00:07:00.140Z,18.50
2023-03-08T00:09:29.394Z,17.40
2023-03-08T00:12:00.574Z,18.40
2023-03-08T00:14:32.172Z,19.00
2023-03-08T00:17:03.165Z,18.50
2023-03-08T00:19:32.623Z,17.60
2023-03-08T00:22:01.889Z,20.60
2023-03-08T00:24:31.497Z,18.40
2023-03-08T00:27:01.121Z,20.30
2023-03-08T00:29:32.132Z,19.20
2023-03-08T00:32:02.465Z,20.70
2023-03-08T00:34:32.305Z,21.50
2023-03-08T00:37:05.888Z,20.10
2023-03-08T00:39:36.075Z,19.90
2023-03-08T00:42:18.385Z,21.20
2023-03-08T00:44:54.502Z,19.60
2023-03-08T00:47:23.803Z,18.60
2023-03-08T00:49:53.022Z,20.10
2023-03-08T00:52:29.856Z,20.60
2023-03-08T00:54:59.673Z,19.40
2023-03-08T00:57:38.979Z,18.80
2023-03-08T01:00:11.900Z,20.80
2023-03-08T01:02:42.760Z,19.40
2023-03-08T01:05:11.852Z,17.80
2023-03-08T01:07:42.288Z,17.70
2023-03-08T01:10:12.787Z,16.70
2023-03-08T01:12:42.998Z,18.70
2023-03-08T01:15:12.379Z,18.80
2023-03-08T01:20:14.811Z,18.10
2023-03-08T01:22:48.636Z,19.70
2023-03-08T01:25:20.875Z,17.20
2023-03-08T01:27:56.288Z,19.10
2023-03-08T01:30:28.346Z,19.00
2023-03-08T01:32:57.749Z,19.50
2023-03-08T01:35:29.904Z,19.60
2023-03-08T01:37:58.957Z,18.20
2023-03-08T01:40:28.054Z,18.30
2023-03-08T01:42:57.746Z,18.20
2023-03-08T01:46:05.345Z,19.10
2023-03-08T01:48:41.352Z,17.10
2023-03-08T01:51:19.438Z,17.40
2023-03-08T01:53:51.567Z,16.50
2023-03-08T01:56:22.184Z,17.70
2023-03-08T01:58:52.687Z,18.20
2023-03-08T02:01:22.629Z,18.80
2023-03-08T02:03:52.741Z,18.50
2023-03-08T02:06:23.649Z,17.60
2023-03-08T02:08:54.143Z,18.80
2023-03-08T02:11:25.247Z,17.00
2023-03-08T02:13:56.496Z,15.70
2023-03-08T02:16:26.689Z,16.70
2023-03-08T02:19:00.669Z,16.00
2023-03-08T02:21:32.860Z,16.60
2023-03-08T02:24:23.749Z,16.60
2023-03-08T02:27:01.346Z,15.90
2023-03-08T02:29:31.601Z,15.10
2023-03-08T02:32:02.998Z,14.20
2023-03-08T02:34:34.063Z,15.30
2023-03-08T02:37:03.613Z,16.50
2023-03-08T02:39:33.873Z,15.10
2023-03-08T02:42:04.018Z,15.30
2023-03-08T02:44:33.312Z,15.90
2023-03-08T02:47:02.766Z,19.10
2023-03-08T02:49:32.167Z,16.20
2023-03-08T02:52:01.729Z,16.00
2023-03-08T02:54:30.934Z,19.60
2023-03-08T02:57:02.799Z,17.90
2023-03-08T02:59:33.314Z,19.10
2023-03-08T03:02:03.461Z,17.20
2023-03-08T03:04:34.906Z,16.80
2023-03-08T03:07:06.622Z,17.20
2023-03-08T03:09:37.341Z,16.40
2023-03-08T03:12:07.865Z,18.50
2023-03-08T03:14:39.379Z,15.20
2023-03-08T03:17:09.377Z,17.80
2023-03-08T03:19:39.484Z,21.30
2023-03-08T03:22:08.741Z,20.00
2023-03-08T03:24:39.971Z,20.70
2023-03-08T03:27:09.802Z,20.80
2023-03-08T03:29:42.725Z,19.60
2023-03-08T03:34:44.443Z,17.60
2023-03-08T03:37:14.825Z,16.00
2023-03-08T03:39:44.036Z,16.20
2023-03-08T03:42:16.523Z,17.50
2023-03-08T03:44:54.102Z,16.90
2023-03-08T03:47:24.595Z,18.00
2023-03-08T03:49:57.055Z,16.90
2023-03-08T03:52:27.868Z,17.00
2023-03-08T03:55:02.265Z,18.10
2023-03-08T03:57:32.513Z,19.10
2023-03-08T04:00:02.217Z,16.00
2023-03-08T04:02:44.007Z,16.30
2023-03-08T04:05:16.660Z,19.30
2023-03-08T04:07:56.866Z,18.50
2023-03-08T04:10:29.047Z,18.00
2023-03-08T04:13:00.296Z,18.20
2023-03-08T04:15:31.425Z,16.70
2023-03-08T04:18:02.220Z,16.00
2023-03-08T04:20:32.361Z,14.30
2023-03-08T04:23:07.213Z,15.40
2023-03-08T04:25:51.283Z,15.00
2023-03-08T04:28:24.748Z,14.20
2023-03-08T04:30:57.435Z,12.00
2023-03-08T04:33:38.166Z,13.10
2023-03-08T04:36:08.929Z,12.20
2023-03-08T04:38:40.872Z,11.50
2023-03-08T04:41:14.341Z,14.40
2023-03-08T04:44:04.787Z,12.00
2023-03-08T04:46:40.890Z,12.40
2023-03-08T04:49:11.610Z,12.80
2023-03-08T04:51:45.789Z,12.90
2023-03-08T04:54:16.528Z,13.20
2023-03-08T04:56:50.748Z,14.00
2023-03-08T04:59:22.067Z,12.30
2023-03-08T05:01:52.498Z,12.00
2023-03-08T05:04:24.027Z,13.20
2023-03-08T05:06:54.564Z,13.70
2023-03-08T05:09:27.526Z,13.40
2023-03-08T05:11:58.936Z,12.40
2023-03-08T05:14:35.883Z,13.00
2023-03-08T05:17:05.687Z,12.50
2023-03-08T05:19:37.410Z,14.10
2023-03-08T05:22:09.446Z,13.80
2023-03-08T05:24:46.612Z,14.00
2023-03-08T05:27:19.199Z,12.80
2023-03-08T05:29:48.479Z,12.60
2023-03-08T05:32:19.156Z,14.10
2023-03-08T05:34:48.277Z,13.50
2023-03-08T05:37:27.513Z,13.90
2023-03-08T05:39:59.940Z,14.40
2023-03-08T05:42:33.278Z,16.00
2023-03-08T05:45:03.095Z,15.60
2023-03-08T05:47:35.684Z,16.00
2023-03-08T05:50:06.164Z,15.70
2023-03-08T05:52:37.194Z,15.90
2023-03-08T05:55:07.398Z,16.00
2023-03-08T05:57:37.533Z,16.60
2023-03-08T06:00:09.369Z,17.60
2023-03-08T06:02:44.839Z,15.80
2023-03-08T06:05:17.244Z,15.70
2023-03-08T06:10:18.402Z,15.50
2023-03-08T06:12:48.869Z,16.30
2023-03-08T06:15:22.321Z,16.70
2023-03-08T06:17:55.610Z,16.20
2023-03-08T06:20:29.112Z,18.60
2023-03-08T06:23:04.196Z,17.20
2023-03-08T06:25:36.097Z,19.30
2023-03-08T06:28:05.723Z,19.40
2023-03-08T06:30:42.744Z,16.70
2023-03-08T06:33:13.994Z,15.70
2023-03-08T06:35:56.454Z,14.80
2023-03-08T06:38:29.868Z,16.70
2023-03-08T06:41:00.548Z,13.20
2023-03-08T06:43:30.862Z,17.30
2023-03-08T06:46:05.338Z,17.40
2023-03-08T06:48:36.373Z,16.70
2023-03-08T06:51:06.600Z,18.00
2023-03-08T06:53:38.708Z,16.90
2023-03-08T06:56:14.952Z,16.50
2023-03-08T06:58:44.443Z,17.10
2023-03-08T07:01:14.764Z,17.00
2023-03-08T07:03:45.819Z,17.10
2023-03-08T07:06:15.897Z,17.30
2023-03-08T07:08:48.867Z,15.10
2023-03-08T07:11:18.308Z,16.00
2023-03-08T07:13:47.862Z,15.80
2023-03-08T07:16:17.485Z,16.90
2023-03-08T07:18:46.839Z,14.50
2023-03-08T07:21:18.165Z,16.80
2023-03-08T07:23:56.881Z,16.80
2023-03-08T07:26:36.697Z,17.20
2023-03-08T07:29:10.545Z,16.30
2023-03-08T07:31:45.785Z,15.90
2023-03-08T07:34:15.755Z,17.20
2023-03-08T07:36:51.479Z,16.00
2023-03-08T07:39:23.483Z,17.40
2023-03-08T07:41:55.970Z,22.60
2023-03-08T07:46:57.468Z,28.40
2023-03-08T07:49:27.813Z,32.70
2023-03-08T07:51:57.972Z,31.60
2023-03-08T07:55:33.182Z,36.60
2023-03-08T07:58:09.478Z,34.30
2023-03-08T08:00:38.799Z,32.70
2023-03-08T08:03:08.856Z,32.30
2023-03-08T08:05:38.796Z,29.70
2023-03-08T08:08:09.601Z,26.60
2023-03-08T08:10:42.267Z,27.10
2023-03-08T08:13:12.548Z,23.30
2023-03-08T08:15:42.278Z,25.20
2023-03-08T08:18:11.473Z,25.60
2023-03-08T08:20:40.544Z,23.30
2023-03-08T08:23:10.267Z,21.20
2023-03-08T08:25:41.172Z,23.20
2023-03-08T08:28:10.338Z,18.70
2023-03-08T08:30:39.941Z,17.50
2023-03-08T08:33:09.627Z,11.30
2023-03-08T08:35:43.566Z,10.80
2023-03-08T08:38:15.641Z,11.60
2023-03-08T08:40:45.472Z,9.60
2023-03-08T08:43:15.171Z,8.40
2023-03-08T08:45:50.086Z,6.20
2023-03-08T08:48:19.905Z,4.00
2023-03-08T08:50:50.011Z,4.10
2023-03-08T08:53:21.022Z,4.10
2023-03-08T08:55:50.700Z,4.30
2023-03-08T08:58:21.630Z,3.90
2023-03-08T09:00:51.509Z,4.10
2023-03-08T09:03:21.172Z,4.70
2023-03-08T09:05:50.337Z,4.80
2023-03-08T09:08:19.671Z,4.50
2023-03-08T09:10:49.884Z,3.90
2023-03-08T09:13:19.326Z,5.10
2023-03-08T09:15:48.378Z,4.10
2023-03-08T09:18:17.705Z,4.20
2023-03-08T09:20:47.152Z,4.30
2023-03-08T09:23:16.671Z,4.50
2023-03-08T09:25:46.836Z,5.10
2023-03-08T09:28:51.608Z,3.00
2023-03-08T09:31:20.996Z,2.50
2023-03-08T09:33:52.399Z,3.00
2023-03-08T09:36:21.891Z,2.30
2023-03-08T09:38:52.747Z,1.70
2023-03-08T09:41:43.570Z,2.40
2023-03-08T09:44:35.435Z,2.00
2023-03-08T09:47:25.460Z,4.20
2023-03-08T09:50:03.442Z,2.60
2023-03-08T09:52:39.097Z,2.30
2023-03-08T09:55:32.052Z,2.70
2023-03-08T09:58:17.376Z,2.50
2023-03-08T10:00:47.917Z,2.70
2023-03-08T10:03:36.498Z,2.30
2023-03-08T10:06:35.382Z,2.40
2023-03-08T10:09:24.689Z,1.90
2023-03-08T10:12:13.423Z,2.40
2023-03-08T10:14:50.068Z,1.90
2023-03-08T10:17:34.508Z,2.70
2023-03-08T10:20:23.043Z,2.30
2023-03-08T10:23:02.312Z,2.10
2023-03-08T10:25:34.521Z,1.80
2023-03-08T10:28:12.015Z,1.90
2023-03-08T10:30:49.984Z,1.70
2023-03-08T10:33:24.811Z,1.60
2023-03-08T10:36:18.349Z,1.90
2023-03-08T10:39:04.551Z,1.80
2023-03-08T10:41:51.985Z,1.80
2023-03-08T10:44:40.968Z,2.10
2023-03-08T10:47:27.265Z,1.70
2023-03-08T10:50:13.695Z,1.80
2023-03-08T10:52:46.575Z,1.50
2023-03-08T10:55:20.695Z,2.10
2023-03-08T10:57:58.289Z,1.80
2023-03-08T11:00:41.218Z,2.10
2023-03-08T11:03:24.888Z,2.80
2023-03-08T11:06:01.513Z,2.80
2023-03-08T11:08:34.566Z,2.20
2023-03-08T11:11:05.863Z,1.50
2023-03-08T11:13:38.904Z,2.30
2023-03-08T11:16:32.717Z,2.00
2023-03-08T11:19:23.835Z,2.40
2023-03-08T11:22:09.723Z,2.20
2023-03-08T11:25:04.258Z,2.20
2023-03-08T11:28:08.829Z,2.10
2023-03-08T11:31:02.107Z,2.20
2023-03-08T11:33:43.221Z,2.10
2023-03-08T11:36:25.814Z,2.30
2023-03-08T11:39:26.732Z,2.80
2023-03-08T11:42:25.711Z,1.80
2023-03-08T11:45:22.498Z,1.80
2023-03-08T11:48:07.126Z,1.60
2023-03-08T11:51:24.923Z,1.60
2023-03-08T11:54:17.779Z,1.60
2023-03-08T11:56:53.380Z,2.00
2023-03-08T11:59:43.035Z,1.10
2023-03-08T12:02:30.888Z,1.80
2023-03-08T12:05:18.840Z,2.00
2023-03-08T12:08:43.342Z,1.80
2023-03-08T12:11:25.406Z,1.30
2023-03-08T12:14:07.026Z,1.60
2023-03-08T12:17:22.655Z,1.50
2023-03-08T12:19:53.924Z,1.30
2023-03-08T12:22:42.736Z,1.30
2023-03-08T12:25:26.266Z,1.40
2023-03-08T12:28:13.733Z,1.50
2023-03-08T12:31:24.841Z,1.40
2023-03-08T12:34:28.538Z,1.20
2023-03-08T12:37:22.456Z,1.30
2023-03-08T12:40:09.301Z,1.30
2023-03-08T12:42:42.058Z,1.70
2023-03-08T12:45:20.299Z,3.50
2023-03-08T12:48:18.055Z,2.90
2023-03-08T12:51:13.945Z,2.30
2023-03-08T12:53:57.314Z,2.30
2023-03-08T12:56:54.042Z,2.60
2023-03-08T12:59:31.970Z,2.80
2023-03-08T13:02:23.750Z,2.50
2023-03-08T13:05:33.176Z,2.40
2023-03-08T13:08:19.693Z,3.10
2023-03-08T13:11:30.740Z,2.20
2023-03-08T13:14:43.618Z,2.40
2023-03-08T13:17:50.506Z,2.70
2023-03-08T13:21:07.382Z,2.20
2023-03-08T13:24:15.738Z,2.30
2023-03-08T13:27:12.721Z,2.50
2023-03-08T13:29:47.250Z,2.10
2023-03-08T13:32:21.167Z,2.10
2023-03-08T13:35:04.324Z,2.40
2023-03-08T13:37:40.798Z,2.10
2023-03-08T13:40:26.270Z,1.80
2023-03-08T13:45:55.086Z,1.50
2023-03-08T13:48:42.357Z,1.20
2023-03-08T13:51:19.740Z,1.50
2023-03-08T13:54:04.484Z,1.90
2023-03-08T13:56:40.178Z,1.70
2023-03-08T13:59:23.279Z,1.80
2023-03-08T14:02:11.935Z,1.70
2023-03-08T14:05:05.200Z,1.90
2023-03-08T14:07:58.993Z,1.70
2023-03-08T14:10:42.793Z,1.80
2023-03-08T14:13:29.657Z,1.70
2023-03-08T14:16:05.705Z,1.70
2023-03-08T14:18:43.854Z,1.70
2023-03-08T14:21:25.978Z,2.00
2023-03-08T14:23:59.494Z,1.90
2023-03-08T14:26:39.349Z,1.90
2023-03-08T14:29:37.838Z,2.00
2023-03-08T14:32:19.199Z,1.80
2023-03-08T14:34:58.706Z,1.70
2023-03-08T14:38:00.796Z,2.00
2023-03-08T14:40:32.206Z,2.10
2023-03-08T14:43:26.747Z,1.90
2023-03-08T14:46:04.493Z,1.80
2023-03-08T14:48:52.340Z,2.10
2023-03-08T14:51:53.536Z,1.80
2023-03-08T14:54:36.730Z,2.10
2023-03-08T14:57:30.458Z,1.90
2023-03-08T15:00:18.677Z,2.20
2023-03-08T15:02:52.840Z,2.00
2023-03-08T15:08:03.578Z,2.20
2023-03-08T15:10:37.999Z,2.00
2023-03-08T15:13:17.690Z,2.20
2023-03-08T15:15:51.084Z,2.30
2023-03-08T15:18:21.426Z,2.00
2023-03-08T15:20:53.117Z,2.50
2023-03-08T15:23:26.784Z,1.90
2023-03-08T15:25:58.456Z,2.40
2023-03-08T15:28:27.631Z,2.20
2023-03-08T15:30:56.845Z,2.60
2023-03-08T15:33:29.187Z,2.50
2023-03-08T15:35:59.239Z,2.40
2023-03-08T15:38:29.222Z,2.40
2023-03-08T15:41:02.957Z,2.30
2023-03-08T15:43:47.770Z,1.90
2023-03-08T15:46:20.213Z,2.30
2023-03-08T15:48:51.532Z,2.10
2023-03-08T15:51:28.553Z,2.30
2023-03-08T15:54:02.431Z,2.40
2023-03-08T15:56:32.140Z,2.90
2023-03-08T15:59:02.660Z,3.20
2023-03-08T16:01:40.663Z,3.50
2023-03-08T16:04:12.602Z,2.40
2023-03-08T16:06:44.142Z,3.10
2023-03-08T16:09:18.117Z,3.20
2023-03-08T16:11:49.326Z,2.70
2023-03-08T16:14:19.115Z,3.40
2023-03-08T16:16:49.117Z,2.60
2023-03-08T16:19:18.462Z,3.80
2023-03-08T16:21:50.664Z,3.00
2023-03-08T16:24:20.338Z,2.90
2023-03-08T16:26:54.784Z,4.20
2023-03-08T16:29:26.990Z,3.10
2023-03-08T16:32:01.307Z,3.30
2023-03-08T16:34:30.847Z,3.10
2023-03-08T16:37:00.012Z,2.70
2023-03-08T16:39:30.373Z,2.70
2023-03-08T16:42:00.399Z,3.40
2023-03-08T16:44:35.623Z,3.30
2023-03-08T16:47:05.537Z,3.30
2023-03-08T16:49:37.012Z,2.90
2023-03-08T16:52:06.335Z,3.60
2023-03-08T16:54:36.494Z,3.30
2023-03-08T16:57:18.280Z,3.00
2023-03-08T16:59:53.994Z,3.30
2023-03-08T17:02:26.181Z,2.80
2023-03-08T17:07:47.461Z,3.40
2023-03-08T17:10:29.558Z,2.80
2023-03-08T17:13:02.435Z,3.70
2023-03-08T17:15:43.119Z,2.70
2023-03-08T17:18:15.578Z,3.30
2023-03-08T17:20:49.011Z,3.20
2023-03-08T17:23:28.574Z,3.50
2023-03-08T17:26:09.486Z,3.70
2023-03-08T17:28:51.379Z,3.30
2023-03-08T17:31:29.091Z,3.50
2023-03-08T17:34:16.403Z,3.50
2023-03-08T17:36:57.107Z,3.20
2023-03-08T17:39:53.306Z,3.70
2023-03-08T17:45:31.610Z,3.20
2023-03-08T17:48:04.472Z,3.40
2023-03-08T17:50:35.064Z,3.80
2023-03-08T17:53:04.775Z,4.10
2023-03-08T17:55:34.158Z,3.60
2023-03-08T17:58:06.665Z,3.80
2023-03-08T18:00:36.436Z,3.40
2023-03-08T18:03:06.771Z,4.00
2023-03-08T18:05:36.679Z,3.20
2023-03-08T18:08:08.864Z,3.60
2023-03-08T18:13:08.988Z,3.70
2023-03-08T18:15:38.614Z,3.70
2023-03-08T18:18:08.716Z,4.00
2023-03-08T18:20:37.983Z,3.90
2023-03-08T18:25:39.204Z,3.70
2023-03-08T18:28:09.070Z,4.20
2023-03-08T18:30:39.880Z,3.70
2023-03-08T18:33:09.236Z,4.30
2023-03-08T18:35:38.489Z,3.90
2023-03-08T18:38:08.663Z,4.30
2023-03-08T18:40:37.991Z,4.70
2023-03-08T18:43:08.511Z,4.00
2023-03-08T18:45:37.715Z,4.40
2023-03-08T18:48:07.088Z,4.90
2023-03-08T18:51:02.216Z,4.30
2023-03-08T18:53:40.610Z,4.10
2023-03-08T18:56:11.838Z,3.30
2023-03-08T18:58:41.364Z,3.70
2023-03-08T19:01:31.961Z,3.70
2023-03-08T19:04:08.412Z,5.20
2023-03-08T19:06:41.593Z,4.10
2023-03-08T19:09:18.021Z,3.90
2023-03-08T19:12:12.430Z,4.10
2023-03-08T19:14:41.498Z,5.00
2023-03-08T19:17:11.235Z,5.10
2023-03-08T19:19:59.573Z,5.00
2023-03-08T19:22:28.943Z,4.60
2023-03-08T19:24:58.274Z,6.10
2023-03-08T19:27:29.541Z,7.10
2023-03-08T19:29:59.600Z,5.00
2023-03-08T19:32:30.816Z,6.40
2023-03-08T19:35:00.087Z,7.20
2023-03-08T19:37:33.697Z,7.20
2023-03-08T19:40:05.916Z,6.90
2023-03-08T19:42:36.753Z,7.90
2023-03-08T19:45:09.160Z,7.40
2023-03-08T19:47:39.588Z,8.30
2023-03-08T19:50:13.522Z,8.20
2023-03-08T19:52:42.838Z,8.20
2023-03-08T19:57:46.583Z,6.90
2023-03-08T20:00:18.500Z,3.70
2023-03-08T20:02:49.285Z,3.20
2023-03-08T20:05:18.989Z,2.70
2023-03-08T20:07:49.803Z,3.20
2023-03-08T20:10:19.582Z,2.70
2023-03-08T20:12:52.969Z,3.20
2023-03-08T20:15:24.459Z,3.00
2023-03-08T20:17:56.195Z,3.70
2023-03-08T20:20:25.498Z,3.60
2023-03-08T20:22:56.327Z,3.40
2023-03-08T20:25:30.970Z,3.30
2023-03-08T20:28:01.076Z,3.20
2023-03-08T20:30:38.422Z,3.20
2023-03-08T20:33:12.955Z,3.00
2023-03-08T20:35:49.615Z,2.40
2023-03-08T20:38:22.308Z,3.70
2023-03-08T20:43:37.108Z,3.00
2023-03-08T20:46:13.417Z,2.90
2023-03-08T20:48:57.609Z,3.00
2023-03-08T20:51:30.726Z,2.80
2023-03-08T20:54:01.809Z,3.20
2023-03-08T20:56:30.929Z,3.00
2023-03-08T20:59:01.577Z,2.90
2023-03-08T21:01:33.823Z,2.80
2023-03-08T21:04:03.461Z,3.40
2023-03-08T21:06:34.534Z,2.70
2023-03-08T21:09:04.767Z,3.30
2023-03-08T21:11:34.546Z,2.80
2023-03-08T21:14:04.227Z,2.90
2023-03-08T21:16:33.861Z,3.50
2023-03-08T21:19:04.835Z,3.30
2023-03-08T21:21:41.586Z,3.10
2023-03-08T21:24:15.282Z,2.80
2023-03-08T21:26:48.520Z,2.90
2023-03-08T21:29:22.732Z,2.90
2023-03-08T21:31:54.475Z,2.50
2023-03-08T21:34:23.803Z,2.40
2023-03-08T21:36:54.402Z,2.60
2023-03-08T21:39:26.952Z,2.50
2023-03-08T21:41:58.950Z,2.40
2023-03-08T21:44:31.585Z,2.60
2023-03-08T21:47:01.409Z,2.50
2023-03-08T21:49:32.570Z,2.70
2023-03-08T21:52:04.988Z,2.00
2023-03-08T21:54:34.382Z,2.80
2023-03-08T21:57:04.472Z,2.60
2023-03-08T21:59:33.510Z,2.40
2023-03-08T22:02:02.777Z,2.70
2023-03-08T22:04:34.213Z,2.20
2023-03-08T22:07:04.476Z,2.60
2023-03-08T22:09:35.415Z,2.30
2023-03-08T22:12:04.761Z,3.00
2023-03-08T22:14:34.781Z,2.80
2023-03-08T22:17:05.020Z,2.60
2023-03-08T22:19:35.835Z,2.60
2023-03-08T22:22:05.562Z,2.60
2023-03-08T22:24:35.479Z,2.40
2023-03-08T22:27:05.709Z,2.90
2023-03-08T22:29:35.014Z,3.10
2023-03-08T22:32:08.877Z,4.20
2023-03-08T22:34:38.133Z,8.80
2023-03-08T22:37:09.483Z,9.50
2023-03-08T22:39:39.661Z,11.20
2023-03-08T22:42:10.164Z,11.90
2023-03-08T22:44:40.745Z,12.40
2023-03-08T22:47:09.903Z,12.30
2023-03-08T22:49:39.836Z,10.90
2023-03-08T22:52:10.063Z,11.90
2023-03-08T22:54:39.188Z,11.90
2023-03-08T22:57:08.946Z,11.50
2023-03-08T22:59:39.111Z,12.30
2023-03-08T23:02:11.001Z,12.30
2023-03-08T23:04:42.303Z,11.00
2023-03-08T23:07:12.425Z,11.60
2023-03-08T23:09:41.725Z,12.70
2023-03-08T23:12:12.380Z,11.70
2023-03-08T23:14:45.363Z,11.90
2023-03-08T23:17:15.650Z,11.50
2023-03-08T23:19:45.491Z,10.10
2023-03-08T23:22:17.363Z,11.60
2023-03-08T23:24:49.618Z,12.00
2023-03-08T23:27:18.961Z,11.00
2023-03-08T23:29:53.362Z,10.60
2023-03-08T23:32:23.199Z,11.10
2023-03-08T23:34:52.349Z,11.00
2023-03-08T23:37:21.463Z,11.50
2023-03-08T23:39:50.682Z,11.20
2023-03-08T23:42:20.836Z,10.70
2023-03-08T23:44:52.840Z,12.10
2023-03-08T23:47:22.688Z,12.30
2023-03-08T23:49:52.176Z,12.60
2023-03-08T23:52:25.192Z,11.60
2023-03-08T23:54:54.942Z,11.30
2023-03-08T23:57:23.936Z,11.60
2023-03-08T23:59:54.477Z,11.00
